createdAt,value
2018-03-15T00:00:52.236Z,5.50
2018-03-15T00:03:25.584Z,5.50
2018-03-15T00:05:53.358Z,5.50
2018-03-15T00:08:20.926Z,5.50
2018-03-15T00:10:48.532Z,5.50
2018-03-15T00:13:19.590Z,5.50
2018-03-15T00:15:47.195Z,5.60
2018-03-15T00:18:15.547Z,5.60
2018-03-15T00:20:43.114Z,5.60
2018-03-15T00:23:10.736Z,5.60
2018-03-15T00:25:38.307Z,5.50
2018-03-15T00:28:19.572Z,5.50
2018-03-15T00:30:47.157Z,5.50
2018-03-15T00:33:14.746Z,5.50
2018-03-15T00:35:42.357Z,5.40
2018-03-15T00:38:09.920Z,5.40
2018-03-15T00:40:37.491Z,5.40
2018-03-15T00:43:05.104Z,5.40
2018-03-15T00:45:33.446Z,5.50
2018-03-15T00:48:01.045Z,5.50
2018-03-15T00:50:34.212Z,5.50
2018-03-15T00:53:01.778Z,5.40
2018-03-15T00:55:29.348Z,5.40
2018-03-15T00:57:57.715Z,5.40
2018-03-15T01:00:25.273Z,5.40
2018-03-15T01:02:52.863Z,5.40
2018-03-15T01:05:20.439Z,5.40
2018-03-15T01:07:48.013Z,5.40
2018-03-15T01:10:19.498Z,5.30
2018-03-15T01:12:47.073Z,5.40
2018-03-15T01:15:15.416Z,5.30
2018-03-15T01:17:43.018Z,5.30
2018-03-15T01:20:11.368Z,5.20
2018-03-15T01:22:39.004Z,5.20
2018-03-15T01:25:06.565Z,5.30
2018-03-15T01:27:34.135Z,5.30
2018-03-15T01:30:01.757Z,5.30
2018-03-15T01:32:29.335Z,5.20
2018-03-15T01:34:56.902Z,5.10
2018-03-15T01:37:24.514Z,5.10
2018-03-15T01:40:03.147Z,5.10
2018-03-15T01:42:31.494Z,4.90
2018-03-15T01:44:59.089Z,4.90
2018-03-15T01:47:26.687Z,4.90
2018-03-15T01:49:54.254Z,4.80
2018-03-15T01:52:21.852Z,4.70
2018-03-15T01:54:50.219Z,4.60
2018-03-15T02:00:11.632Z,4.60
2018-03-15T02:02:39.205Z,4.50
2018-03-15T02:05:06.772Z,4.50
2018-03-15T02:07:34.355Z,4.40
2018-03-15T02:10:02.690Z,4.40
2018-03-15T02:12:31.055Z,4.40
2018-03-15T02:14:58.612Z,4.40
2018-03-15T02:17:26.224Z,4.40
2018-03-15T02:19:54.554Z,4.30
2018-03-15T02:22:22.228Z,4.30
2018-03-15T02:24:49.823Z,4.30
2018-03-15T02:27:18.172Z,4.20
2018-03-15T02:29:45.770Z,4.20
2018-03-15T02:32:14.098Z,4.10
2018-03-15T02:34:41.700Z,4.10
2018-03-15T02:37:10.040Z,4.00
2018-03-15T02:39:37.657Z,4.00
2018-03-15T02:42:05.214Z,4.00
2018-03-15T02:44:32.791Z,4.00
2018-03-15T02:47:00.380Z,4.00
2018-03-15T02:49:27.971Z,4.00
2018-03-15T02:51:56.315Z,4.00
2018-03-15T02:54:23.944Z,4.00
2018-03-15T02:56:51.518Z,4.00
2018-03-15T02:59:19.123Z,4.00
2018-03-15T03:01:46.700Z,4.00
2018-03-15T03:04:15.034Z,3.90
2018-03-15T03:06:42.629Z,3.90
2018-03-15T03:09:11.001Z,3.90
2018-03-15T03:11:38.576Z,3.80
2018-03-15T03:14:06.920Z,3.90
2018-03-15T03:16:34.506Z,3.90
2018-03-15T03:19:02.101Z,3.90
2018-03-15T03:21:29.708Z,3.90
2018-03-15T03:23:57.998Z,3.90
2018-03-15T03:26:25.590Z,3.90
2018-03-15T03:28:53.207Z,3.90
2018-03-15T03:31:20.815Z,3.80
2018-03-15T03:33:48.390Z,3.80
2018-03-15T03:36:15.998Z,3.70
2018-03-15T03:38:43.594Z,3.70
2018-03-15T03:41:11.169Z,3.70
2018-03-15T03:43:38.727Z,3.80
2018-03-15T03:46:06.326Z,3.80
2018-03-15T03:48:43.538Z,3.70
2018-03-15T03:51:11.895Z,3.60
2018-03-15T03:56:35.340Z,3.60
2018-03-15T03:59:02.922Z,3.60
2018-03-15T04:01:31.285Z,3.70
2018-03-15T04:03:58.883Z,3.70
2018-03-15T04:06:26.461Z,3.70
2018-03-15T04:08:54.823Z,3.60
2018-03-15T04:11:45.025Z,3.60
2018-03-15T04:14:13.369Z,3.70
2018-03-15T04:16:40.941Z,3.60
2018-03-15T04:19:08.555Z,3.70
2018-03-15T04:21:36.150Z,3.70
2018-03-15T04:24:03.749Z,3.70
2018-03-15T04:26:32.100Z,3.80
2018-03-15T04:28:59.668Z,3.80
2018-03-15T04:31:27.269Z,3.90
2018-03-15T04:33:54.846Z,4.00
2018-03-15T04:36:22.453Z,4.10
2018-03-15T04:38:50.010Z,4.20
2018-03-15T04:41:17.563Z,4.20
2018-03-15T04:43:55.728Z,4.20
2018-03-15T04:46:23.293Z,4.20
2018-03-15T04:48:50.869Z,4.20
2018-03-15T04:51:18.440Z,4.30
2018-03-15T04:53:46.014Z,4.20
2018-03-15T04:56:13.607Z,4.20
2018-03-15T04:58:41.181Z,4.30
2018-03-15T05:01:08.775Z,4.40
2018-03-15T05:03:36.348Z,4.50
2018-03-15T05:06:04.742Z,4.60
2018-03-15T05:08:33.081Z,4.70
2018-03-15T05:11:00.722Z,4.70
2018-03-15T05:13:28.287Z,4.70
2018-03-15T05:15:55.857Z,4.70
2018-03-15T05:18:29.459Z,4.70
2018-03-15T05:20:57.155Z,4.60
2018-03-15T05:23:24.790Z,4.60
2018-03-15T05:25:53.124Z,4.70
2018-03-15T05:28:20.688Z,4.70
2018-03-15T05:30:48.300Z,4.80
2018-03-15T05:33:15.874Z,4.80
2018-03-15T05:35:43.447Z,4.80
2018-03-15T05:38:11.804Z,4.90
2018-03-15T05:40:39.399Z,4.90
2018-03-15T05:43:08.717Z,4.90
2018-03-15T05:45:36.307Z,4.90
2018-03-15T05:48:04.663Z,4.80
2018-03-15T05:50:32.248Z,4.80
2018-03-15T05:53:10.633Z,4.80
2018-03-15T05:55:38.258Z,4.80
2018-03-15T05:58:06.592Z,5.00
2018-03-15T06:00:34.173Z,5.00
2018-03-15T06:03:01.768Z,5.10
2018-03-15T06:05:30.097Z,5.20
2018-03-15T06:07:57.693Z,5.20
2018-03-15T06:10:27.961Z,5.40
2018-03-15T06:12:55.729Z,5.40
2018-03-15T06:15:23.319Z,5.50
2018-03-15T06:17:50.887Z,5.50
2018-03-15T06:20:20.499Z,5.50
2018-03-15T06:22:48.235Z,5.60
2018-03-15T06:25:16.913Z,5.60
2018-03-15T06:27:44.569Z,5.60
2018-03-15T06:30:12.141Z,5.60
2018-03-15T06:32:39.742Z,5.60
2018-03-15T06:35:08.916Z,5.80
2018-03-15T06:37:36.516Z,5.80
2018-03-15T06:40:06.061Z,5.80
2018-03-15T06:42:33.624Z,5.90
2018-03-15T06:45:01.215Z,5.90
2018-03-15T06:47:28.795Z,6.00
2018-03-15T06:49:57.158Z,6.00
2018-03-15T06:52:25.501Z,6.10
2018-03-15T06:54:53.054Z,6.10
2018-03-15T06:57:20.644Z,6.10
2018-03-15T06:59:49.933Z,6.20
2018-03-15T07:02:17.503Z,6.30
2018-03-15T07:04:45.099Z,6.40
2018-03-15T07:07:12.695Z,6.50
2018-03-15T07:09:40.271Z,6.60
2018-03-15T07:12:07.875Z,6.70
2018-03-15T07:14:35.439Z,6.80
2018-03-15T07:17:03.025Z,7.00
2018-03-15T07:19:30.613Z,7.10
2018-03-15T07:21:58.205Z,7.20
2018-03-15T07:24:25.774Z,7.30
2018-03-15T07:26:54.146Z,7.40
2018-03-15T07:29:22.487Z,7.50
2018-03-15T07:31:50.123Z,7.50
2018-03-15T07:34:17.737Z,7.60
2018-03-15T07:36:46.086Z,7.70
2018-03-15T07:39:13.666Z,7.60
2018-03-15T07:41:41.242Z,7.70
2018-03-15T07:44:09.600Z,7.90
2018-03-15T07:46:37.171Z,7.90
2018-03-15T07:49:04.738Z,7.90
2018-03-15T07:51:33.091Z,8.10
2018-03-15T07:54:00.774Z,8.00
2018-03-15T07:56:28.525Z,8.20
2018-03-15T07:58:56.132Z,8.40
2018-03-15T08:01:23.715Z,8.60
2018-03-15T08:03:51.274Z,8.60
2018-03-15T08:06:18.868Z,8.60
2018-03-15T08:08:46.461Z,8.50
2018-03-15T08:11:14.985Z,8.40
2018-03-15T08:13:42.575Z,8.40
2018-03-15T08:16:10.139Z,8.40
2018-03-15T08:18:37.725Z,8.50
2018-03-15T08:21:05.328Z,8.50
2018-03-15T08:23:32.959Z,8.50
2018-03-15T08:26:00.551Z,8.60
2018-03-15T08:28:28.116Z,8.70
2018-03-15T08:30:55.701Z,8.80
2018-03-15T08:33:23.297Z,8.90
2018-03-15T08:35:50.917Z,8.90
2018-03-15T08:38:18.474Z,9.00
2018-03-15T08:40:46.030Z,9.10
2018-03-15T08:43:13.620Z,9.30
2018-03-15T08:45:41.951Z,9.60
2018-03-15T08:48:09.560Z,9.60
2018-03-15T08:50:38.097Z,9.70
2018-03-15T08:53:05.669Z,9.60
2018-03-15T08:55:33.268Z,9.60
2018-03-15T08:58:00.861Z,9.80
2018-03-15T09:00:28.434Z,9.80
2018-03-15T09:02:56.033Z,9.90
2018-03-15T09:05:24.358Z,10.10
2018-03-15T09:07:51.927Z,10.10
2018-03-15T09:10:19.519Z,10.20
2018-03-15T09:12:47.108Z,10.30
2018-03-15T09:15:14.682Z,10.40
2018-03-15T09:17:42.517Z,10.60
2018-03-15T09:20:11.785Z,10.80
2018-03-15T09:22:39.352Z,10.70
2018-03-15T09:25:07.927Z,10.80
2018-03-15T09:27:35.498Z,10.80
2018-03-15T09:30:03.097Z,10.90
2018-03-15T09:32:30.683Z,10.90
2018-03-15T09:34:59.331Z,10.90
2018-03-15T09:37:26.878Z,10.70
2018-03-15T09:39:54.500Z,10.70
2018-03-15T09:42:22.095Z,10.80
2018-03-15T09:44:49.746Z,10.90
2018-03-15T09:47:17.341Z,11.10
2018-03-15T09:49:44.933Z,11.30
2018-03-15T09:52:12.551Z,11.50
2018-03-15T09:54:40.155Z,11.50
2018-03-15T09:57:07.760Z,11.60
2018-03-15T09:59:35.343Z,11.70
2018-03-15T10:02:02.958Z,11.80
2018-03-15T10:04:31.339Z,11.80
2018-03-15T10:06:59.733Z,11.90
2018-03-15T10:09:28.105Z,12.00
2018-03-15T10:11:56.704Z,12.10
2018-03-15T10:14:24.310Z,12.10
2018-03-15T10:16:52.013Z,12.20
2018-03-15T10:19:19.760Z,12.30
2018-03-15T10:21:48.270Z,12.50
2018-03-15T10:24:16.661Z,12.60
2018-03-15T10:26:44.256Z,12.60
2018-03-15T10:29:12.639Z,12.90
2018-03-15T10:31:40.245Z,12.90
2018-03-15T10:34:07.858Z,12.90
2018-03-15T10:36:35.492Z,13.00
2018-03-15T10:39:03.085Z,13.00
2018-03-15T10:41:30.714Z,12.80
2018-03-15T10:43:58.304Z,12.80
2018-03-15T10:46:25.929Z,12.90
2018-03-15T10:48:53.538Z,12.80
2018-03-15T10:51:31.104Z,12.70
2018-03-15T10:53:58.694Z,12.70
2018-03-15T10:56:26.319Z,12.90
2018-03-15T10:58:53.956Z,13.00
2018-03-15T11:01:22.494Z,13.10
2018-03-15T11:03:50.107Z,13.10
2018-03-15T11:06:32.991Z,13.20
2018-03-15T11:09:01.378Z,13.30
2018-03-15T11:11:29.748Z,13.20
2018-03-15T11:13:58.120Z,13.10
2018-03-15T11:16:25.740Z,13.10
2018-03-15T11:18:53.545Z,13.00
2018-03-15T11:21:21.105Z,13.10
2018-03-15T11:23:50.751Z,13.10
2018-03-15T11:26:18.365Z,13.10
2018-03-15T11:28:45.970Z,13.10
2018-03-15T11:31:14.338Z,13.30
2018-03-15T11:33:42.730Z,13.40
2018-03-15T11:36:10.403Z,13.40
2018-03-15T11:38:38.024Z,13.40
2018-03-15T11:41:07.610Z,13.40
2018-03-15T11:43:35.244Z,13.40
2018-03-15T11:46:02.880Z,13.60
2018-03-15T11:48:30.474Z,13.80
2018-03-15T11:50:58.054Z,14.10
2018-03-15T11:53:25.663Z,14.40
2018-03-15T11:55:53.281Z,14.60
2018-03-15T11:58:20.886Z,14.90
2018-03-15T12:00:48.575Z,14.90
2018-03-15T12:03:16.227Z,15.10
2018-03-15T12:05:43.848Z,15.20
2018-03-15T12:08:12.214Z,14.90
2018-03-15T12:10:40.580Z,14.80
2018-03-15T12:13:08.211Z,14.80
2018-03-15T12:15:48.148Z,14.50
2018-03-15T12:18:15.776Z,14.40
2018-03-15T12:20:43.364Z,14.50
2018-03-15T12:23:11.740Z,14.00
2018-03-15T12:25:40.078Z,14.00
2018-03-15T12:28:07.695Z,14.00
2018-03-15T12:30:35.266Z,13.90
2018-03-15T12:33:02.847Z,13.90
2018-03-15T12:35:37.256Z,13.90
2018-03-15T12:38:04.828Z,14.20
2018-03-15T12:40:32.424Z,14.50
2018-03-15T12:43:00.004Z,14.60
2018-03-15T12:45:28.380Z,14.50
2018-03-15T12:47:56.746Z,14.70
2018-03-15T12:50:25.438Z,14.80
2018-03-15T12:52:52.987Z,14.80
2018-03-15T12:55:21.368Z,15.00
2018-03-15T12:57:49.714Z,14.70
2018-03-15T13:00:17.280Z,14.70
2018-03-15T13:02:44.887Z,14.50
2018-03-15T13:05:12.482Z,14.40
2018-03-15T13:07:40.840Z,14.30
2018-03-15T13:10:08.415Z,14.40
2018-03-15T13:12:35.986Z,14.30
2018-03-15T13:15:03.610Z,14.20
2018-03-15T13:17:31.186Z,14.10
2018-03-15T13:19:58.792Z,14.10
2018-03-15T13:22:26.367Z,14.20
2018-03-15T13:24:54.728Z,14.50
2018-03-15T13:27:22.323Z,14.50
2018-03-15T13:29:50.688Z,14.70
2018-03-15T13:32:19.044Z,14.70
2018-03-15T13:34:46.640Z,14.70
2018-03-15T13:37:14.990Z,14.80
2018-03-15T13:39:42.602Z,14.80
2018-03-15T13:42:10.200Z,14.80
2018-03-15T13:44:37.771Z,14.70
2018-03-15T13:47:10.440Z,14.60
2018-03-15T13:49:38.027Z,14.50
2018-03-15T13:52:06.384Z,14.40
2018-03-15T13:54:33.959Z,14.40
2018-03-15T13:57:02.406Z,14.10
2018-03-15T13:59:30.035Z,14.10
2018-03-15T14:01:57.635Z,14.00
2018-03-15T14:04:25.281Z,13.80
2018-03-15T14:06:52.864Z,13.70
2018-03-15T14:09:20.439Z,13.70
2018-03-15T14:11:48.034Z,13.70
2018-03-15T14:14:15.609Z,13.60
2018-03-15T14:16:47.069Z,13.50
2018-03-15T14:19:14.648Z,13.50
2018-03-15T14:21:42.971Z,13.40
2018-03-15T14:24:10.534Z,13.40
2018-03-15T14:26:38.117Z,13.30
2018-03-15T14:29:05.708Z,13.20
2018-03-15T14:31:33.286Z,13.20
2018-03-15T14:34:00.891Z,13.20
2018-03-15T14:36:35.711Z,13.20
2018-03-15T14:39:03.321Z,13.10
2018-03-15T14:41:31.490Z,12.90
2018-03-15T14:43:59.057Z,12.90
2018-03-15T14:46:26.639Z,12.80
2018-03-15T14:48:54.987Z,12.60
2018-03-15T14:51:29.016Z,12.60
2018-03-15T14:53:56.587Z,12.70
2018-03-15T14:56:24.956Z,12.60
2018-03-15T14:58:52.567Z,12.50
2018-03-15T15:01:20.158Z,12.70
2018-03-15T15:03:48.557Z,12.70
2018-03-15T15:06:16.192Z,12.70
2018-03-15T15:08:43.761Z,12.70
2018-03-15T15:11:30.990Z,12.80
2018-03-15T15:13:58.624Z,12.70
2018-03-15T15:16:26.189Z,12.60
2018-03-15T15:18:53.787Z,12.70
2018-03-15T15:21:22.157Z,12.60
2018-03-15T15:23:49.768Z,12.60
2018-03-15T15:26:17.368Z,12.60
2018-03-15T15:29:02.666Z,12.50
2018-03-15T15:31:31.028Z,12.60
2018-03-15T15:33:58.612Z,12.60
2018-03-15T15:36:26.992Z,12.60
2018-03-15T15:38:55.344Z,12.60
2018-03-15T15:41:22.964Z,12.60
2018-03-15T15:43:50.576Z,12.50
2018-03-15T15:46:18.915Z,12.70
2018-03-15T15:48:47.531Z,12.70
2018-03-15T15:51:16.068Z,12.80
2018-03-15T15:53:43.666Z,12.90
2018-03-15T15:56:11.315Z,12.90
2018-03-15T15:58:38.917Z,12.80
2018-03-15T16:01:06.496Z,12.70
2018-03-15T16:03:34.080Z,12.70
2018-03-15T16:06:01.682Z,12.60
2018-03-15T16:08:30.026Z,12.50
2018-03-15T16:10:57.630Z,12.50
2018-03-15T16:13:26.990Z,12.40
2018-03-15T16:15:54.666Z,12.40
2018-03-15T16:18:22.210Z,12.50
2018-03-15T16:20:59.783Z,12.50
2018-03-15T16:23:27.379Z,12.50
2018-03-15T16:25:54.981Z,12.60
2018-03-15T16:28:23.508Z,12.60
2018-03-15T16:30:51.082Z,12.60
2018-03-15T16:33:18.734Z,12.60
2018-03-15T16:35:46.370Z,12.60
2018-03-15T16:38:13.961Z,12.60
2018-03-15T16:40:41.565Z,12.50
2018-03-15T16:43:09.305Z,12.40
2018-03-15T16:45:36.876Z,12.50
2018-03-15T16:48:05.216Z,12.50
2018-03-15T16:50:47.667Z,12.50
2018-03-15T16:53:16.013Z,12.70
2018-03-15T16:55:43.614Z,12.60
2018-03-15T16:58:16.343Z,12.70
2018-03-15T17:00:43.936Z,12.70
2018-03-15T17:03:12.305Z,12.60
2018-03-15T17:05:39.924Z,12.60
2018-03-15T17:08:07.506Z,12.60
2018-03-15T17:10:35.153Z,12.50
2018-03-15T17:13:02.756Z,12.60
2018-03-15T17:15:31.086Z,12.40
2018-03-15T17:17:58.672Z,12.40
2018-03-15T17:20:31.668Z,12.50
2018-03-15T17:22:59.252Z,12.50
2018-03-15T17:25:27.671Z,12.40
2018-03-15T17:27:55.243Z,12.30
2018-03-15T17:30:22.873Z,12.30
2018-03-15T17:32:50.498Z,12.40
2018-03-15T17:35:18.151Z,12.30
2018-03-15T17:37:45.740Z,12.30
2018-03-15T17:40:14.172Z,12.30
2018-03-15T17:42:41.796Z,12.30
2018-03-15T17:45:10.108Z,12.10
2018-03-15T17:47:37.729Z,12.10
2018-03-15T17:50:07.276Z,12.00
2018-03-15T17:52:34.834Z,11.90
2018-03-15T17:55:02.419Z,11.90
2018-03-15T17:57:30.015Z,11.70
2018-03-15T17:59:57.711Z,11.70
2018-03-15T18:02:25.410Z,11.70
2018-03-15T18:04:53.059Z,11.70
2018-03-15T18:07:20.706Z,11.60
2018-03-15T18:09:48.278Z,11.60
2018-03-15T18:12:15.940Z,11.50
2018-03-15T18:14:43.550Z,11.40
2018-03-15T18:17:11.134Z,11.30
2018-03-15T18:19:38.754Z,11.10
2018-03-15T18:22:07.091Z,11.10
2018-03-15T18:24:34.679Z,11.00
2018-03-15T18:27:02.307Z,11.00
2018-03-15T18:29:29.904Z,10.90
2018-03-15T18:31:57.606Z,10.80
2018-03-15T18:34:28.853Z,10.70
2018-03-15T18:36:56.426Z,10.70
2018-03-15T18:39:24.112Z,10.60
2018-03-15T18:41:51.817Z,10.40
2018-03-15T18:44:24.116Z,10.30
2018-03-15T18:46:51.744Z,10.30
2018-03-15T18:49:20.184Z,10.10
2018-03-15T18:51:47.759Z,10.10
2018-03-15T18:54:15.367Z,10.00
2018-03-15T18:56:42.931Z,10.00
2018-03-15T18:59:10.531Z,10.00
2018-03-15T19:01:38.158Z,10.10
2018-03-15T19:04:05.735Z,10.00
2018-03-15T19:06:33.327Z,10.00
2018-03-15T19:09:01.721Z,9.90
2018-03-15T19:11:29.312Z,9.90
2018-03-15T19:13:56.906Z,10.00
2018-03-15T19:16:24.556Z,9.90
2018-03-15T19:18:52.121Z,9.90
2018-03-15T19:21:19.704Z,9.80
2018-03-15T19:23:47.271Z,9.80
2018-03-15T19:26:15.636Z,9.80
2018-03-15T19:28:43.215Z,9.80
2018-03-15T19:31:11.557Z,9.70
2018-03-15T19:33:39.141Z,9.70
2018-03-15T19:36:06.719Z,9.70
2018-03-15T19:38:34.304Z,9.70
2018-03-15T19:41:02.082Z,9.70
2018-03-15T19:43:29.685Z,9.60
2018-03-15T19:45:58.044Z,9.40
2018-03-15T19:48:25.643Z,9.40
2018-03-15T19:50:53.971Z,9.10
2018-03-15T19:53:22.322Z,9.00
2018-03-15T19:55:49.907Z,8.90
2018-03-15T19:58:18.271Z,8.90
2018-03-15T20:00:45.844Z,8.90
2018-03-15T20:03:13.432Z,8.80
2018-03-15T20:05:41.018Z,8.80
2018-03-15T20:08:09.353Z,8.90
2018-03-15T20:10:36.992Z,8.90
2018-03-15T20:13:05.351Z,9.00
2018-03-15T20:15:38.567Z,9.00
2018-03-15T20:18:06.144Z,9.10
2018-03-15T20:20:33.746Z,9.20
2018-03-15T20:23:07.827Z,9.20
2018-03-15T20:25:35.481Z,9.20
2018-03-15T20:28:08.700Z,9.20
2018-03-15T20:30:37.190Z,9.40
2018-03-15T20:33:11.115Z,9.50
2018-03-15T20:35:39.480Z,9.60
2018-03-15T20:38:07.859Z,9.70
2018-03-15T20:40:41.013Z,9.70
2018-03-15T20:43:08.677Z,9.80
2018-03-15T20:45:41.975Z,9.90
2018-03-15T20:48:15.143Z,10.00
2018-03-15T20:50:43.495Z,10.20
2018-03-15T20:53:11.088Z,10.10
2018-03-15T20:55:38.665Z,10.20
2018-03-15T20:58:07.768Z,10.20
2018-03-15T21:00:35.361Z,10.20
2018-03-15T21:03:02.942Z,10.20
